Time;durP1;ratioP1;P1;durP2;ratioP2;P2;SDS_P1;SDS_P2;PMS_P1;PMS_P2;Temp;Humidity;BMP_temperature;BMP_pressure;BME280_temperature;BME280_humidity;BME280_pressure;Samples;Min_cycle;Max_cycle;Signal;HPM_P1;HPM_P2
2022/06/08 00:00:03;;;;;;;13.98;9.95;;;;;;;;;;5011806;28;20186;-68
2022/06/08 00:02:32;;;;;;;17.90;9.95;;;;;;;;;;5010604;28;20729;-69
2022/06/08 00:04:57;;;;;;;16.05;10.93;;;;;;;;;;5010097;28;20197;-68
2022/06/08 00:07:23;;;;;;;16.52;11.18;;;;;;;;;;5004352;28;20179;-68
2022/06/08 00:09:48;;;;;;;16.60;10.70;;;;;;;;;;5031606;28;20760;-68
2022/06/08 00:12:14;;;;;;;14.20;10.13;;;;;;;;;;4994774;28;20225;-67
2022/06/08 00:14:39;;;;;;;16.88;10.90;;;;;;;;;;5015558;28;20199;-68
2022/06/08 00:17:05;;;;;;;13.88;9.63;;;;;;;;;;4998116;28;20278;-68
2022/06/08 00:19:31;;;;;;;15.25;10.68;;;;;;;;;;5021031;28;20214;-67
2022/06/08 00:21:56;;;;;;;17.75;10.70;;;;;;;;;;5009449;28;20221;-68
2022/06/08 00:24:21;;;;;;;18.33;10.38;;;;;;;;;;5000095;28;20226;-68
2022/06/08 00:26:47;;;;;;;13.45;9.93;;;;;;;;;;4996495;28;20187;-68
2022/06/08 00:29:12;;;;;;;17.95;11.43;;;;;;;;;;5018759;28;20175;-68
2022/06/08 00:31:38;;;;;;;17.77;11.25;;;;;;;;;;5010495;28;20545;-69
2022/06/08 00:34:03;;;;;;;15.35;10.98;;;;;;;;;;5005643;28;20325;-68
2022/06/08 00:36:29;;;;;;;15.38;11.13;;;;;;;;;;5004713;28;20187;-68
2022/06/08 00:38:54;;;;;;;18.08;11.40;;;;;;;;;;4993500;28;20219;-68
2022/06/08 00:41:35;;;;;;;16.48;10.77;;;;;;;;;;4996433;28;20269;-68
2022/06/08 00:44:04;;;;;;;18.83;11.77;;;;;;;;;;5000610;28;20278;-68
2022/06/08 00:46:30;;;;;;;15.13;10.68;;;;;;;;;;5008379;28;20217;-68
2022/06/08 00:49:00;;;;;;;17.23;12.38;;;;;;;;;;4994638;28;20215;-67
2022/06/08 00:51:26;;;;;;;16.65;10.98;;;;;;;;;;4997075;28;20209;-67
2022/06/08 00:54:06;;;;;;;15.90;10.60;;;;;;;;;;5003899;28;20178;-68
2022/06/08 00:56:36;;;;;;;16.67;11.38;;;;;;;;;;4998568;28;20183;-68
2022/06/08 00:59:04;;;;;;;19.80;11.80;;;;;;;;;;5010767;28;20211;-68
2022/06/08 01:01:29;;;;;;;17.58;11.63;;;;;;;;;;5021124;28;20190;-68
2022/06/08 01:04:11;;;;;;;17.63;11.13;;;;;;;;;;5009606;28;20190;-68
2022/06/08 01:06:39;;;;;;;17.52;11.25;;;;;;;;;;5008321;28;20216;-68
2022/06/08 01:09:05;;;;;;;14.98;10.38;;;;;;;;;;5011241;28;20186;-67
2022/06/08 01:11:44;;;;;;;17.75;10.23;;;;;;;;;;5009022;28;20282;-67
2022/06/08 01:14:15;;;;;;;18.23;10.82;;;;;;;;;;5009574;28;20197;-68
2022/06/08 01:16:45;;;;;;;15.75;10.60;;;;;;;;;;5007890;28;20198;-68
2022/06/08 01:19:12;;;;;;;20.90;11.70;;;;;;;;;;5003267;28;20698;-68
2022/06/08 01:21:37;;;;;;;17.00;11.25;;;;;;;;;;5017646;28;20214;-67
2022/06/08 01:24:09;;;;;;;15.00;10.38;;;;;;;;;;5006505;28;20214;-67
2022/06/08 01:26:46;;;;;;;21.70;11.52;;;;;;;;;;5008589;28;20186;-68
2022/06/08 01:29:18;;;;;;;19.73;9.98;;;;;;;;;;5009437;28;20208;-69
2022/06/08 01:31:52;;;;;;;18.73;11.55;;;;;;;;;;5009484;28;20214;-68
2022/06/08 01:34:34;;;;;;;17.17;11.18;;;;;;;;;;5000411;28;20182;-68
2022/06/08 01:37:25;;;;;;;19.58;11.00;;;;;;;;;;5020417;28;20221;-68
2022/06/08 01:40:13;;;;;;;15.45;10.30;;;;;;;;;;5000487;28;20298;-68
2022/06/08 01:42:51;;;;;;;18.05;10.93;;;;;;;;;;5008106;28;20183;-68
2022/06/08 01:45:50;;;;;;;15.98;11.00;;;;;;;;;;5005455;28;20206;-69
2022/06/08 01:48:27;;;;;;;16.88;10.63;;;;;;;;;;5002909;28;20182;-69
2022/06/08 01:50:55;;;;;;;16.70;11.13;;;;;;;;;;5007283;28;20183;-69
2022/06/08 01:53:44;;;;;;;17.50;11.20;;;;;;;;;;5008926;28;20194;-69
2022/06/08 01:56:35;;;;;;;18.17;11.35;;;;;;;;;;5001062;28;20188;-69
2022/06/08 01:59:07;;;;;;;15.25;10.82;;;;;;;;;;4997558;28;20203;-69
2022/06/08 02:01:43;;;;;;;21.00;11.82;;;;;;;;;;5027230;28;20185;-69
2022/06/08 02:04:11;;;;;;;15.60;10.70;;;;;;;;;;5000623;28;20609;-69
2022/06/08 02:06:48;;;;;;;16.75;10.75;;;;;;;;;;5009875;28;20217;-69
2022/06/08 02:09:24;;;;;;;15.88;10.52;;;;;;;;;;5009549;28;20273;-68
2022/06/08 02:12:01;;;;;;;19.13;11.25;;;;;;;;;;5002141;28;20179;-69
2022/06/08 02:14:38;;;;;;;19.50;11.38;;;;;;;;;;5005796;28;20205;-69
2022/06/08 02:17:24;;;;;;;19.80;11.48;;;;;;;;;;5010543;28;20206;-69
2022/06/08 02:19:54;;;;;;;16.90;11.23;;;;;;;;;;4986226;28;20646;-68
2022/06/08 02:22:27;;;;;;;17.60;11.02;;;;;;;;;;5006909;28;20236;-69
2022/06/08 02:25:06;;;;;;;20.45;12.07;;;;;;;;;;5001917;28;20240;-69
2022/06/08 02:28:03;;;;;;;21.58;12.27;;;;;;;;;;5007899;28;20670;-69
2022/06/08 02:30:33;;;;;;;22.20;11.93;;;;;;;;;;4999955;28;20222;-69
2022/06/08 02:36:00;;;;;;;18.92;12.00;;;;;;;;;;5002140;28;20209;-69
2022/06/08 02:38:34;;;;;;;20.67;12.23;;;;;;;;;;4993942;28;20290;-68
2022/06/08 02:41:02;;;;;;;20.20;12.45;;;;;;;;;;4999902;28;20179;-68
2022/06/08 02:43:34;;;;;;;21.40;11.63;;;;;;;;;;5005993;28;20221;-68
2022/06/08 02:46:13;;;;;;;21.52;13.60;;;;;;;;;;5003727;28;20189;-68
2022/06/08 02:48:38;;;;;;;17.17;12.32;;;;;;;;;;5006279;28;20634;-68
2022/06/08 02:51:04;;;;;;;20.30;13.48;;;;;;;;;;5002976;28;20206;-68
2022/06/08 02:53:30;;;;;;;20.50;12.80;;;;;;;;;;5008147;28;20210;-68
2022/06/08 02:56:06;;;;;;;21.70;12.82;;;;;;;;;;5008062;28;20206;-67
2022/06/08 02:58:49;;;;;;;20.40;13.52;;;;;;;;;;4998228;28;20206;-68
2022/06/08 03:01:37;;;;;;;21.35;13.68;;;;;;;;;;4997819;28;20324;-70
2022/06/08 03:04:12;;;;;;;17.95;12.10;;;;;;;;;;5008994;28;20693;-69
2022/06/08 03:06:45;;;;;;;23.38;14.75;;;;;;;;;;5008657;28;20277;-69
2022/06/08 03:09:13;;;;;;;26.58;14.68;;;;;;;;;;5011544;28;20211;-68
2022/06/08 03:11:43;;;;;;;19.63;14.07;;;;;;;;;;5022400;28;20189;-68
2022/06/08 03:14:11;;;;;;;24.30;14.38;;;;;;;;;;5027751;28;20272;-68
2022/06/08 03:16:52;;;;;;;22.42;14.70;;;;;;;;;;5015590;28;20216;-68
2022/06/08 03:19:18;;;;;;;23.63;15.93;;;;;;;;;;5008297;28;20202;-68
2022/06/08 03:21:44;;;;;;;24.58;16.80;;;;;;;;;;5011191;28;20194;-68
2022/06/08 03:24:09;;;;;;;28.63;16.40;;;;;;;;;;5010888;28;20714;-69
2022/06/08 03:26:39;;;;;;;26.42;17.35;;;;;;;;;;5006136;28;20241;-69
2022/06/08 03:29:05;;;;;;;26.60;16.77;;;;;;;;;;5001517;28;20229;-68
2022/06/08 03:31:32;;;;;;;23.83;15.65;;;;;;;;;;5007832;28;20241;-68
2022/06/08 03:33:57;;;;;;;26.65;18.13;;;;;;;;;;5003228;28;20628;-68
2022/06/08 03:36:22;;;;;;;31.90;20.60;;;;;;;;;;5012232;28;20208;-68
2022/06/08 03:38:48;;;;;;;32.70;20.35;;;;;;;;;;5002227;28;20199;-68
2022/06/08 03:41:13;;;;;;;29.80;20.50;;;;;;;;;;5009160;28;20285;-68
2022/06/08 03:43:39;;;;;;;33.90;20.42;;;;;;;;;;5011565;28;20185;-68
2022/06/08 03:46:07;;;;;;;31.33;20.17;;;;;;;;;;5010145;28;20193;-69
2022/06/08 03:48:33;;;;;;;30.40;19.70;;;;;;;;;;4999499;28;20661;-68
2022/06/08 03:51:00;;;;;;;32.45;22.40;;;;;;;;;;5010583;28;20278;-68
2022/06/08 03:53:43;;;;;;;30.50;19.98;;;;;;;;;;5010586;28;20564;-68
2022/06/08 03:56:10;;;;;;;36.25;23.13;;;;;;;;;;5011687;28;20186;-68
2022/06/08 03:58:36;;;;;;;31.35;21.17;;;;;;;;;;5008625;28;20191;-67
2022/06/08 04:01:03;;;;;;;31.02;20.90;;;;;;;;;;5010053;28;20286;-66
2022/06/08 04:03:29;;;;;;;37.22;22.58;;;;;;;;;;5007310;28;20660;-67
2022/06/08 04:05:56;;;;;;;35.17;22.60;;;;;;;;;;5008440;28;20265;-67
2022/06/08 04:08:21;;;;;;;32.70;21.35;;;;;;;;;;5010530;28;20536;-67
2022/06/08 04:10:46;;;;;;;33.63;21.13;;;;;;;;;;5011892;28;20186;-66
2022/06/08 04:13:12;;;;;;;34.15;22.48;;;;;;;;;;5010739;28;20228;-66
2022/06/08 04:15:43;;;;;;;38.40;23.90;;;;;;;;;;5010137;28;20197;-67
2022/06/08 04:18:11;;;;;;;36.83;24.73;;;;;;;;;;5011751;28;20206;-67
2022/06/08 04:20:37;;;;;;;37.45;24.55;;;;;;;;;;5005984;28;20180;-67
2022/06/08 04:23:04;;;;;;;33.60;22.30;;;;;;;;;;5008490;28;20187;-65
2022/06/08 04:25:30;;;;;;;38.50;24.58;;;;;;;;;;5014497;28;20611;-64
2022/06/08 04:27:55;;;;;;;33.25;24.60;;;;;;;;;;5010951;28;20716;-65
2022/06/08 04:30:21;;;;;;;35.63;24.65;;;;;;;;;;5000060;28;20195;-66
2022/06/08 04:32:47;;;;;;;34.55;22.17;;;;;;;;;;5010889;28;20758;-65
2022/06/08 04:35:13;;;;;;;30.65;20.05;;;;;;;;;;5010562;28;20183;-65
2022/06/08 04:37:39;;;;;;;34.33;22.10;;;;;;;;;;5008134;28;20670;-66
2022/06/08 04:40:08;;;;;;;33.78;22.33;;;;;;;;;;5007943;28;20225;-65
2022/06/08 04:42:34;;;;;;;32.97;22.38;;;;;;;;;;5006406;28;20204;-66
2022/06/08 04:44:59;;;;;;;28.70;21.30;;;;;;;;;;5007969;28;20554;-66
2022/06/08 04:47:25;;;;;;;31.40;22.45;;;;;;;;;;5007421;28;20171;-65
2022/06/08 04:49:50;;;;;;;33.17;22.90;;;;;;;;;;5009148;28;20556;-66
2022/06/08 04:52:17;;;;;;;33.60;21.60;;;;;;;;;;5000894;28;20205;-65
2022/06/08 04:54:42;;;;;;;34.28;22.30;;;;;;;;;;5007819;28;20193;-65
2022/06/08 04:57:08;;;;;;;36.85;24.27;;;;;;;;;;5008858;28;20183;-65
2022/06/08 04:59:33;;;;;;;30.13;20.95;;;;;;;;;;5004118;28;20655;-65
2022/06/08 05:01:59;;;;;;;31.38;22.15;;;;;;;;;;5007829;28;20206;-66
2022/06/08 05:04:24;;;;;;;32.55;23.58;;;;;;;;;;5009474;28;20198;-66
2022/06/08 05:06:49;;;;;;;31.13;22.63;;;;;;;;;;5006003;28;20189;-66
2022/06/08 05:09:15;;;;;;;30.35;23.00;;;;;;;;;;5006941;28;20206;-66
2022/06/08 05:11:40;;;;;;;36.13;24.48;;;;;;;;;;5007099;28;20309;-66
2022/06/08 05:14:06;;;;;;;33.03;22.63;;;;;;;;;;5007488;28;20543;-66
2022/06/08 05:16:31;;;;;;;33.72;22.25;;;;;;;;;;5001160;28;20301;-66
2022/06/08 05:18:56;;;;;;;32.47;22.70;;;;;;;;;;5008975;28;20214;-67
2022/06/08 05:21:22;;;;;;;31.60;22.65;;;;;;;;;;5008290;28;20203;-70
2022/06/08 05:23:49;;;;;;;33.25;23.65;;;;;;;;;;5004914;28;20183;-67
2022/06/08 05:26:14;;;;;;;34.42;23.42;;;;;;;;;;5006348;28;20269;-66
2022/06/08 05:28:41;;;;;;;37.88;25.05;;;;;;;;;;5009088;28;20183;-65
2022/06/08 05:31:06;;;;;;;31.98;22.63;;;;;;;;;;5004424;28;20714;-66
2022/06/08 05:33:32;;;;;;;33.95;23.17;;;;;;;;;;5008230;28;20525;-65
2022/06/08 05:35:57;;;;;;;33.38;23.80;;;;;;;;;;5006835;28;20198;-64
2022/06/08 05:38:23;;;;;;;31.50;22.23;;;;;;;;;;5008456;28;20762;-65
2022/06/08 05:40:49;;;;;;;32.85;23.27;;;;;;;;;;5006027;28;20221;-65
2022/06/08 05:43:16;;;;;;;32.22;23.20;;;;;;;;;;5007479;28;20240;-65
2022/06/08 05:45:42;;;;;;;29.95;20.48;;;;;;;;;;5009000;28;20191;-66
2022/06/08 05:48:08;;;;;;;32.35;22.63;;;;;;;;;;5008703;28;20175;-66
2022/06/08 05:50:35;;;;;;;31.95;22.13;;;;;;;;;;5006466;28;20647;-65
2022/06/08 05:53:02;;;;;;;31.33;22.27;;;;;;;;;;5006223;28;20190;-65
2022/06/08 05:55:27;;;;;;;30.38;21.17;;;;;;;;;;5038831;28;20190;-65
2022/06/08 05:57:53;;;;;;;31.70;21.55;;;;;;;;;;5005852;28;20206;-66
2022/06/08 06:00:25;;;;;;;33.33;19.98;;;;;;;;;;5007953;28;20182;-66
2022/06/08 06:02:51;;;;;;;28.17;20.38;;;;;;;;;;5005991;28;20202;-68
2022/06/08 06:05:21;;;;;;;28.23;20.05;;;;;;;;;;5001144;28;20783;-65
2022/06/08 06:07:47;;;;;;;29.23;21.38;;;;;;;;;;5005380;28;20174;-67
2022/06/08 06:10:14;;;;;;;27.05;19.67;;;;;;;;;;5006882;28;20266;-65
2022/06/08 06:12:40;;;;;;;27.13;19.13;;;;;;;;;;5003145;28;20182;-64
2022/06/08 06:15:08;;;;;;;23.70;17.10;;;;;;;;;;5009098;28;20193;-66
2022/06/08 06:17:33;;;;;;;27.70;19.05;;;;;;;;;;5007129;28;20238;-67
2022/06/08 06:19:59;;;;;;;25.50;16.42;;;;;;;;;;5007665;28;20210;-67
2022/06/08 06:22:25;;;;;;;23.75;17.13;;;;;;;;;;5008263;28;20573;-66
2022/06/08 06:24:50;;;;;;;19.92;16.38;;;;;;;;;;5007110;28;20230;-66
2022/06/08 06:27:16;;;;;;;21.65;15.88;;;;;;;;;;5005222;28;20643;-66
2022/06/08 06:29:41;;;;;;;22.80;16.90;;;;;;;;;;5000418;28;20814;-66
2022/06/08 06:32:12;;;;;;;22.52;15.82;;;;;;;;;;4998209;28;20219;-66
2022/06/08 06:34:38;;;;;;;20.13;15.30;;;;;;;;;;5003666;28;20543;-66
2022/06/08 06:37:04;;;;;;;20.63;15.15;;;;;;;;;;5010215;28;20189;-66
2022/06/08 06:39:29;;;;;;;19.98;14.20;;;;;;;;;;5002875;28;20262;-66
2022/06/08 06:41:57;;;;;;;19.52;13.55;;;;;;;;;;4992892;28;20668;-66
2022/06/08 06:44:23;;;;;;;16.92;13.50;;;;;;;;;;5004341;28;20189;-67
2022/06/08 06:46:49;;;;;;;18.08;12.93;;;;;;;;;;5005551;28;20183;-65
2022/06/08 06:49:14;;;;;;;16.63;13.02;;;;;;;;;;5007159;28;20567;-65
2022/06/08 06:51:40;;;;;;;15.57;13.43;;;;;;;;;;5005789;28;20187;-66
2022/06/08 06:54:08;;;;;;;17.23;13.18;;;;;;;;;;5002436;28;20181;-66
2022/06/08 06:56:34;;;;;;;18.38;13.82;;;;;;;;;;4997518;28;20179;-65
2022/06/08 06:59:00;;;;;;;17.27;12.52;;;;;;;;;;5002567;28;20203;-66
2022/06/08 07:01:25;;;;;;;19.60;13.43;;;;;;;;;;5036211;28;20665;-65
2022/06/08 07:03:51;;;;;;;16.63;11.98;;;;;;;;;;5001633;28;20187;-65
2022/06/08 07:06:17;;;;;;;15.75;11.45;;;;;;;;;;5001057;28;20194;-66
2022/06/08 07:08:42;;;;;;;15.73;10.95;;;;;;;;;;5009813;28;20261;-66
2022/06/08 07:13:52;;;;;;;16.02;11.00;;;;;;;;;;5004949;28;20522;-66
2022/06/08 07:16:17;;;;;;;15.85;11.02;;;;;;;;;;5008650;28;20190;-66
2022/06/08 07:18:43;;;;;;;16.13;10.60;;;;;;;;;;5005055;28;20642;-67
2022/06/08 07:21:11;;;;;;;14.77;11.07;;;;;;;;;;5003277;28;20725;-67
2022/06/08 07:23:37;;;;;;;15.93;10.70;;;;;;;;;;5018489;28;20205;-67
2022/06/08 07:26:02;;;;;;;11.95;10.07;;;;;;;;;;5007011;28;20226;-66
2022/06/08 07:28:28;;;;;;;16.73;11.13;;;;;;;;;;5001363;28;20542;-66
2022/06/08 07:30:54;;;;;;;13.48;9.50;;;;;;;;;;5002283;28;20509;-69
2022/06/08 07:33:19;;;;;;;12.07;9.02;;;;;;;;;;4998340;28;20180;-66
2022/06/08 07:35:46;;;;;;;12.20;9.23;;;;;;;;;;5002392;28;20659;-66
2022/06/08 07:38:11;;;;;;;11.88;9.50;;;;;;;;;;4998264;28;20234;-66
2022/06/08 07:40:36;;;;;;;12.50;9.15;;;;;;;;;;5001233;28;20629;-66
2022/06/08 07:43:02;;;;;;;12.45;8.23;;;;;;;;;;4989028;28;20183;-66
2022/06/08 07:45:27;;;;;;;11.52;7.97;;;;;;;;;;5001241;28;20187;-66
2022/06/08 07:50:37;;;;;;;12.40;8.90;;;;;;;;;;5000262;28;20194;-65
2022/06/08 07:53:02;;;;;;;13.60;9.30;;;;;;;;;;4999014;28;20552;-64
2022/06/08 07:55:28;;;;;;;11.65;8.93;;;;;;;;;;5009322;28;20191;-66
2022/06/08 07:57:53;;;;;;;11.55;8.43;;;;;;;;;;5006432;28;20214;-65
2022/06/08 08:00:20;;;;;;;10.15;7.00;;;;;;;;;;5000932;28;20206;-70
2022/06/08 08:02:46;;;;;;;9.55;5.57;;;;;;;;;;5002378;28;20183;-65
2022/06/08 08:05:14;;;;;;;10.07;5.95;;;;;;;;;;4997247;28;20192;-68
2022/06/08 08:07:40;;;;;;;11.15;5.07;;;;;;;;;;5001440;28;20198;-65
2022/06/08 08:10:11;;;;;;;9.88;6.97;;;;;;;;;;5010975;28;20273;-65
2022/06/08 08:12:36;;;;;;;12.00;6.35;;;;;;;;;;4998638;28;20175;-66
2022/06/08 08:15:02;;;;;;;9.25;6.70;;;;;;;;;;5007932;28;20245;-65
2022/06/08 08:17:28;;;;;;;10.25;7.47;;;;;;;;;;5006630;28;20713;-64
2022/06/08 08:19:53;;;;;;;11.90;8.48;;;;;;;;;;5018836;28;20186;-66
2022/06/08 08:22:20;;;;;;;11.93;8.05;;;;;;;;;;5002870;28;20176;-64
2022/06/08 08:24:46;;;;;;;11.02;7.10;;;;;;;;;;5000396;28;20230;-65
2022/06/08 08:27:12;;;;;;;12.63;7.53;;;;;;;;;;5011680;28;20545;-65
2022/06/08 08:29:37;;;;;;;10.48;7.90;;;;;;;;;;5010860;28;20594;-66
2022/06/08 08:32:03;;;;;;;13.25;8.23;;;;;;;;;;5011192;28;20635;-65
2022/06/08 08:34:28;;;;;;;13.95;8.13;;;;;;;;;;5003735;28;20178;-65
2022/06/08 08:36:54;;;;;;;10.90;7.47;;;;;;;;;;5004237;28;20453;-65
2022/06/08 08:39:19;;;;;;;11.57;7.35;;;;;;;;;;5009111;28;20495;-65
2022/06/08 08:44:36;;;;;;;8.35;6.60;;;;;;;;;;4990176;28;20315;-66
2022/06/08 08:47:23;;;;;;;12.40;7.25;;;;;;;;;;5009821;28;20186;-66
2022/06/08 08:49:54;;;;;;;8.73;5.85;;;;;;;;;;5006346;28;20267;-67
2022/06/08 08:52:31;;;;;;;9.48;6.63;;;;;;;;;;5005755;28;20186;-65
2022/06/08 08:55:03;;;;;;;8.50;6.00;;;;;;;;;;5006916;28;20600;-65
2022/06/08 08:57:43;;;;;;;8.57;4.80;;;;;;;;;;5008199;28;20175;-65
2022/06/08 09:00:24;;;;;;;6.97;5.00;;;;;;;;;;5007691;28;20548;-66
2022/06/08 09:05:36;;;;;;;8.60;5.47;;;;;;;;;;5005839;28;20635;-65
2022/06/08 09:08:01;;;;;;;6.43;4.18;;;;;;;;;;5010482;28;20202;-65
2022/06/08 09:10:27;;;;;;;10.68;4.88;;;;;;;;;;5006413;28;20314;-65
2022/06/08 09:12:53;;;;;;;7.40;5.28;;;;;;;;;;5009524;28;20198;-65
2022/06/08 09:15:49;;;;;;;7.45;4.65;;;;;;;;;;5007211;28;20551;-65
2022/06/08 09:18:19;;;;;;;5.90;3.85;;;;;;;;;;5004458;28;20206;-65
2022/06/08 09:20:45;;;;;;;6.47;3.80;;;;;;;;;;5004375;28;20214;-65
2022/06/08 09:23:36;;;;;;;8.30;3.42;;;;;;;;;;5005495;28;20214;-65
2022/06/08 09:26:23;;;;;;;4.80;2.88;;;;;;;;;;4994931;28;20243;-65
2022/06/08 09:29:00;;;;;;;6.68;3.15;;;;;;;;;;5009431;28;20182;-65
2022/06/08 09:31:30;;;;;;;3.75;2.47;;;;;;;;;;4998919;28;20202;-66
2022/06/08 09:34:18;;;;;;;7.28;2.67;;;;;;;;;;5004083;28;20309;-68
2022/06/08 09:36:44;;;;;;;4.72;2.13;;;;;;;;;;5003938;28;20718;-68
2022/06/08 09:39:12;;;;;;;2.00;1.63;;;;;;;;;;4994558;28;20285;-69
2022/06/08 09:41:45;;;;;;;2.70;2.00;;;;;;;;;;5004093;28;20685;-67
2022/06/08 09:44:15;;;;;;;2.65;1.70;;;;;;;;;;5000625;28;20266;-66
2022/06/08 09:53:12;;;;;;;2.88;1.95;;;;;;;;;;5002089;28;20413;-65
2022/06/08 09:55:55;;;;;;;2.80;1.83;;;;;;;;;;5001241;28;20606;-67
2022/06/08 09:58:47;;;;;;;5.15;1.85;;;;;;;;;;4996971;28;20345;-67
2022/06/08 10:01:17;;;;;;;4.57;2.35;;;;;;;;;;5009168;28;20178;-67
2022/06/08 10:04:10;;;;;;;2.33;2.00;;;;;;;;;;5002188;28;20198;-65
2022/06/08 10:06:45;;;;;;;4.22;1.85;;;;;;;;;;5006380;28;20206;-65
2022/06/08 10:09:44;;;;;;;5.20;2.08;;;;;;;;;;5007059;28;20211;-66
2022/06/08 10:12:12;;;;;;;3.55;2.10;;;;;;;;;;5008316;28;20675;-68
2022/06/08 10:15:00;;;;;;;2.38;2.00;;;;;;;;;;5007194;28;20238;-65
2022/06/08 10:17:43;;;;;;;5.25;2.00;;;;;;;;;;5008040;28;20637;-65
2022/06/08 10:20:11;;;;;;;4.45;1.90;;;;;;;;;;5007041;28;20607;-68
2022/06/08 10:22:42;;;;;;;2.97;1.70;;;;;;;;;;5007153;28;20301;-65
2022/06/08 10:25:18;;;;;;;3.55;1.90;;;;;;;;;;5008101;28;20233;-66
2022/06/08 10:27:53;;;;;;;2.70;1.50;;;;;;;;;;5008013;28;20183;-65
2022/06/08 10:30:25;;;;;;;4.03;2.10;;;;;;;;;;5008139;28;20182;-68
2022/06/08 10:33:02;;;;;;;3.70;2.30;;;;;;;;;;5006898;28;20678;-69
2022/06/08 10:35:36;;;;;;;3.38;2.00;;;;;;;;;;5006501;28;20227;-70
2022/06/08 10:38:04;;;;;;;5.40;1.92;;;;;;;;;;5005698;28;20643;-69
2022/06/08 10:40:45;;;;;;;2.53;2.00;;;;;;;;;;5008263;28;20693;-66
2022/06/08 10:43:19;;;;;;;2.97;1.65;;;;;;;;;;5007334;28;20183;-66
2022/06/08 10:46:02;;;;;;;4.22;1.75;;;;;;;;;;5004334;28;20210;-67
2022/06/08 10:48:44;;;;;;;5.25;1.63;;;;;;;;;;5003124;28;20515;-65
2022/06/08 10:51:10;;;;;;;3.72;1.58;;;;;;;;;;5005526;28;20707;-68
2022/06/08 10:56:35;;;;;;;4.93;1.90;;;;;;;;;;4995394;28;20198;-67
2022/06/08 10:59:06;;;;;;;6.15;1.55;;;;;;;;;;4994531;28;20670;-67
2022/06/08 11:01:49;;;;;;;2.20;1.20;;;;;;;;;;5004290;28;20252;-66
2022/06/08 11:04:30;;;;;;;3.88;1.23;;;;;;;;;;5003639;28;20201;-69
2022/06/08 11:07:13;;;;;;;2.28;1.13;;;;;;;;;;5000972;28;20277;-66
2022/06/08 11:09:45;;;;;;;4.47;1.70;;;;;;;;;;4997514;28;20167;-66
2022/06/08 11:12:13;;;;;;;5.45;1.70;;;;;;;;;;4999273;28;20193;-66
2022/06/08 11:14:47;;;;;;;5.55;2.15;;;;;;;;;;5006467;28;20269;-66
2022/06/08 11:17:41;;;;;;;5.88;1.73;;;;;;;;;;5003807;28;20186;-66
2022/06/08 11:20:15;;;;;;;6.07;1.90;;;;;;;;;;5005355;28;20651;-66
2022/06/08 11:22:51;;;;;;;6.22;1.90;;;;;;;;;;5004168;28;20201;-67
2022/06/08 11:25:25;;;;;;;7.78;2.00;;;;;;;;;;5005019;28;20229;-67
2022/06/08 11:28:29;;;;;;;5.72;1.90;;;;;;;;;;5007909;28;20179;-67
2022/06/08 11:31:00;;;;;;;5.95;2.25;;;;;;;;;;5007434;28;20217;-66
2022/06/08 11:34:01;;;;;;;4.45;1.67;;;;;;;;;;5011407;28;20179;-66
2022/06/08 11:36:54;;;;;;;4.32;1.77;;;;;;;;;;5009416;28;20620;-66
2022/06/08 11:39:34;;;;;;;3.60;2.00;;;;;;;;;;5010664;28;20249;-66
2022/06/08 11:42:14;;;;;;;6.95;1.77;;;;;;;;;;5011142;28;20195;-67
2022/06/08 11:44:54;;;;;;;5.38;1.98;;;;;;;;;;5007338;28;20836;-67
2022/06/08 11:47:36;;;;;;;5.10;1.83;;;;;;;;;;5015445;28;20620;-67
2022/06/08 11:50:11;;;;;;;6.60;2.28;;;;;;;;;;5008476;28;20686;-66
2022/06/08 11:52:39;;;;;;;7.82;2.15;;;;;;;;;;5010408;28;20178;-67
2022/06/08 11:55:29;;;;;;;5.20;2.50;;;;;;;;;;5011097;28;20277;-67
2022/06/08 11:58:08;;;;;;;9.15;2.70;;;;;;;;;;4997404;28;20218;-70
2022/06/08 12:00:33;;;;;;;6.13;2.10;;;;;;;;;;5006677;28;20273;-65
2022/06/08 12:03:03;;;;;;;8.95;2.58;;;;;;;;;;5007317;28;20266;-65
2022/06/08 12:05:32;;;;;;;6.00;2.45;;;;;;;;;;5010535;28;20226;-65
2022/06/08 12:08:08;;;;;;;7.22;2.38;;;;;;;;;;5007646;28;20506;-68
2022/06/08 12:10:35;;;;;;;6.50;2.55;;;;;;;;;;5006472;28;20380;-67
2022/06/08 12:13:02;;;;;;;7.22;2.72;;;;;;;;;;5009146;28;20272;-66
2022/06/08 12:15:38;;;;;;;8.65;2.67;;;;;;;;;;5007331;28;20536;-66
2022/06/08 12:18:11;;;;;;;11.05;2.97;;;;;;;;;;5009006;28;20203;-68
2022/06/08 12:20:39;;;;;;;8.02;2.40;;;;;;;;;;5001715;28;20213;-67
2022/06/08 12:23:05;;;;;;;9.77;2.58;;;;;;;;;;5007753;28;20175;-66
2022/06/08 12:25:31;;;;;;;6.60;2.75;;;;;;;;;;5000778;28;20314;-67
2022/06/08 12:28:03;;;;;;;9.63;2.55;;;;;;;;;;5006464;28;20504;-67
2022/06/08 12:30:31;;;;;;;9.40;2.75;;;;;;;;;;5011261;28;20214;-66
2022/06/08 12:33:20;;;;;;;6.40;3.00;;;;;;;;;;5006759;28;20182;-66
2022/06/08 12:35:56;;;;;;;6.85;2.97;;;;;;;;;;5006887;28;20325;-65
2022/06/08 12:38:30;;;;;;;9.95;3.22;;;;;;;;;;5004374;28;20198;-66
2022/06/08 12:41:12;;;;;;;8.90;3.28;;;;;;;;;;5000327;28;20179;-65
2022/06/08 12:43:42;;;;;;;7.55;3.55;;;;;;;;;;5008759;28;20193;-65
2022/06/08 12:46:13;;;;;;;5.72;3.00;;;;;;;;;;5008195;28;20581;-65
2022/06/08 12:48:50;;;;;;;7.25;3.40;;;;;;;;;;5009350;28;20552;-66
2022/06/08 12:51:21;;;;;;;7.50;3.08;;;;;;;;;;5007809;28;20588;-69
2022/06/08 12:53:46;;;;;;;10.23;3.63;;;;;;;;;;5000976;28;20179;-66
2022/06/08 12:56:12;;;;;;;8.65;3.40;;;;;;;;;;5009006;28;20202;-65
2022/06/08 12:58:37;;;;;;;6.82;3.05;;;;;;;;;;5008892;28;20191;-67
2022/06/08 13:01:03;;;;;;;5.18;2.28;;;;;;;;;;4996113;28;20278;-67
2022/06/08 13:03:29;;;;;;;4.28;1.58;;;;;;;;;;4999456;28;20250;-68
2022/06/08 13:05:56;;;;;;;5.53;1.58;;;;;;;;;;5003435;28;20647;-68
2022/06/08 13:08:25;;;;;;;6.45;1.60;;;;;;;;;;5001886;28;20194;-67
2022/06/08 13:10:54;;;;;;;4.10;1.27;;;;;;;;;;5002449;28;20582;-66
2022/06/08 13:13:25;;;;;;;6.85;1.73;;;;;;;;;;4997786;28;20187;-69
2022/06/08 13:15:51;;;;;;;4.70;1.83;;;;;;;;;;4995340;28;20537;-66
2022/06/08 13:18:20;;;;;;;7.47;2.30;;;;;;;;;;5005931;28;20195;-66
2022/06/08 13:20:46;;;;;;;5.28;2.53;;;;;;;;;;5002174;28;20194;-66
2022/06/08 13:23:12;;;;;;;6.03;2.25;;;;;;;;;;4999421;28;20282;-68
2022/06/08 13:25:40;;;;;;;8.27;2.30;;;;;;;;;;4990098;28;20223;-67
2022/06/08 13:28:21;;;;;;;5.22;2.42;;;;;;;;;;5003700;28;20179;-68
2022/06/08 13:30:49;;;;;;;7.15;2.60;;;;;;;;;;5002373;28;20667;-67
2022/06/08 13:36:06;;;;;;;3.83;2.35;;;;;;;;;;5003939;28;20186;-67
2022/06/08 13:38:31;;;;;;;9.02;3.33;;;;;;;;;;4994565;28;20660;-66
2022/06/08 13:40:57;;;;;;;10.13;3.35;;;;;;;;;;5007613;28;20193;-66
2022/06/08 13:43:23;;;;;;;8.25;3.45;;;;;;;;;;5003724;28;20214;-67
2022/06/08 13:45:48;;;;;;;9.85;3.55;;;;;;;;;;5008913;28;20191;-66
2022/06/08 13:48:20;;;;;;;9.63;3.75;;;;;;;;;;5002350;28;20577;-67
2022/06/08 13:50:49;;;;;;;8.25;2.95;;;;;;;;;;5002535;28;20186;-67
2022/06/08 13:53:19;;;;;;;7.47;3.22;;;;;;;;;;4997852;28;20199;-67
2022/06/08 13:55:48;;;;;;;6.38;3.30;;;;;;;;;;5006617;28;20679;-66
2022/06/08 13:58:15;;;;;;;6.93;3.17;;;;;;;;;;5007671;28;20684;-66
2022/06/08 14:00:57;;;;;;;9.65;3.40;;;;;;;;;;5007340;28;20710;-67
2022/06/08 14:03:28;;;;;;;7.22;3.88;;;;;;;;;;5006842;28;20237;-66
2022/06/08 14:14:16;;;;;;;6.78;3.50;;;;;;;;;;4999342;28;20198;-66
2022/06/08 14:16:45;;;;;;;9.65;3.35;;;;;;;;;;5002735;28;20236;-66
2022/06/08 14:19:30;;;;;;;6.10;3.40;;;;;;;;;;5023569;28;20237;-67
2022/06/08 14:21:57;;;;;;;8.13;3.72;;;;;;;;;;5006226;28;20193;-67
2022/06/08 14:24:28;;;;;;;4.68;3.47;;;;;;;;;;5008390;28;20508;-67
2022/06/08 14:26:54;;;;;;;8.18;3.95;;;;;;;;;;5007948;28;20214;-66
2022/06/08 14:29:20;;;;;;;10.40;4.30;;;;;;;;;;5005822;28;20575;-66
2022/06/08 14:31:48;;;;;;;8.90;4.10;;;;;;;;;;5014502;28;20232;-66
2022/06/08 14:34:19;;;;;;;6.80;2.95;;;;;;;;;;5002035;28;20206;-66
2022/06/08 14:36:47;;;;;;;5.75;3.20;;;;;;;;;;5005378;28;20237;-67
2022/06/08 14:39:15;;;;;;;9.20;3.13;;;;;;;;;;5002254;28;20234;-67
2022/06/08 14:41:42;;;;;;;7.20;3.28;;;;;;;;;;5011754;28;20217;-67
2022/06/08 14:44:12;;;;;;;4.45;3.40;;;;;;;;;;5006478;28;20179;-67
2022/06/08 14:46:40;;;;;;;7.15;4.00;;;;;;;;;;5008056;28;20187;-67
2022/06/08 14:49:11;;;;;;;6.00;3.80;;;;;;;;;;5007149;28;20206;-65
2022/06/08 14:51:37;;;;;;;7.53;4.00;;;;;;;;;;5002450;28;20178;-66
2022/06/08 14:54:02;;;;;;;5.20;2.72;;;;;;;;;;5009194;28;20596;-66
2022/06/08 14:56:29;;;;;;;6.13;2.80;;;;;;;;;;5002087;28;20571;-65
2022/06/08 14:59:01;;;;;;;4.70;2.15;;;;;;;;;;5004534;28;20206;-66
2022/06/08 15:01:29;;;;;;;6.47;2.25;;;;;;;;;;5003940;28;20178;-67
2022/06/08 15:03:55;;;;;;;3.08;1.60;;;;;;;;;;5019661;28;20205;-69
2022/06/08 15:06:21;;;;;;;5.47;1.67;;;;;;;;;;5007368;28;20573;-66
2022/06/08 15:08:46;;;;;;;4.05;1.38;;;;;;;;;;5004823;28;20179;-67
2022/06/08 15:14:15;;;;;;;2.20;1.38;;;;;;;;;;5005865;28;20194;-69
2022/06/08 15:16:40;;;;;;;6.53;1.50;;;;;;;;;;5009057;28;20317;-66
2022/06/08 15:19:16;;;;;;;3.22;1.42;;;;;;;;;;5002878;28;20601;-65
2022/06/08 15:21:42;;;;;;;3.20;1.73;;;;;;;;;;5002849;28;20186;-66
2022/06/08 15:24:07;;;;;;;4.30;1.83;;;;;;;;;;5001601;28;20256;-66